createdAt,value
2023-03-02T00:02:17.606Z,1.80
2023-03-02T00:04:48.240Z,1.90
2023-03-02T00:07:17.506Z,1.70
2023-03-02T00:09:45.253Z,1.93
2023-03-02T00:12:12.530Z,1.87
2023-03-02T00:14:39.705Z,1.97
2023-03-02T00:17:08.034Z,2.20
2023-03-02T00:19:36.415Z,1.80
2023-03-02T00:22:03.617Z,1.80
2023-03-02T00:24:30.775Z,2.10
2023-03-02T00:26:57.985Z,1.97
2023-03-02T00:29:25.276Z,1.97
2023-03-02T00:31:52.601Z,2.20
2023-03-02T00:34:19.918Z,1.80
2023-03-02T00:36:49.438Z,2.27
2023-03-02T00:39:19.952Z,2.10
2023-03-02T00:41:47.688Z,2.30
2023-03-02T00:44:17.589Z,2.10
2023-03-02T00:46:45.364Z,1.80
2023-03-02T00:49:13.020Z,2.10
2023-03-02T00:51:40.189Z,1.80
2023-03-02T00:54:07.414Z,2.07
2023-03-02T00:56:34.851Z,1.90
2023-03-02T00:59:11.269Z,2.20
2023-03-02T01:01:38.470Z,2.10
2023-03-02T01:04:05.745Z,1.90
2023-03-02T01:06:33.234Z,2.10
2023-03-02T01:09:00.542Z,2.00
2023-03-02T01:11:27.700Z,2.27
2023-03-02T01:13:54.841Z,2.20
2023-03-02T01:16:22.151Z,2.10
2023-03-02T01:18:49.329Z,2.00
2023-03-02T01:21:16.863Z,1.83
2023-03-02T01:23:44.180Z,2.10
2023-03-02T01:26:11.627Z,2.00
2023-03-02T01:28:38.883Z,2.10
2023-03-02T01:31:06.134Z,2.27
2023-03-02T01:33:33.537Z,2.10
2023-03-02T01:36:01.047Z,2.30
2023-03-02T01:38:28.385Z,2.00
2023-03-02T01:40:55.674Z,2.20
2023-03-02T01:43:23.323Z,2.00
2023-03-02T01:45:53.498Z,1.93
2023-03-02T01:48:23.601Z,1.80
2023-03-02T01:50:50.950Z,1.90
2023-03-02T01:53:18.145Z,2.00
2023-03-02T01:55:46.530Z,1.93
2023-03-02T01:58:15.108Z,1.90
2023-03-02T02:00:42.587Z,1.70
2023-03-02T02:03:12.479Z,1.90
2023-03-02T02:05:41.482Z,1.80
2023-03-02T02:08:09.925Z,1.90
2023-03-02T02:10:37.409Z,1.80
2023-03-02T02:13:04.634Z,1.90
2023-03-02T02:15:31.768Z,1.83
2023-03-02T02:17:58.934Z,1.80
2023-03-02T02:20:31.252Z,1.70
2023-03-02T02:23:06.727Z,1.90
2023-03-02T02:25:42.969Z,1.60
2023-03-02T02:28:13.792Z,1.43
2023-03-02T02:30:41.719Z,1.50
2023-03-02T02:33:12.018Z,1.80
2023-03-02T02:35:40.437Z,1.80
2023-03-02T02:38:08.727Z,1.90
2023-03-02T02:40:54.483Z,1.50
2023-03-02T02:43:22.947Z,1.50
2023-03-02T02:45:52.741Z,1.30
2023-03-02T02:48:23.051Z,1.43
2023-03-02T02:50:53.230Z,1.40
2023-03-02T02:53:22.255Z,1.33
2023-03-02T02:55:50.534Z,1.30
2023-03-02T02:58:35.748Z,1.47
2023-03-02T03:01:03.459Z,1.43
2023-03-02T03:03:32.349Z,1.37
2023-03-02T03:06:01.246Z,1.30
2023-03-02T03:08:47.017Z,1.37
2023-03-02T03:11:15.727Z,1.50
2023-03-02T03:13:44.194Z,1.60
2023-03-02T03:16:14.583Z,1.50
2023-03-02T03:18:46.218Z,1.37
2023-03-02T03:21:13.401Z,1.20
2023-03-02T03:23:40.603Z,1.37
2023-03-02T03:26:08.346Z,1.40
2023-03-02T03:28:35.756Z,1.50
2023-03-02T03:31:03.060Z,1.40
2023-03-02T03:33:30.342Z,1.33
2023-03-02T03:35:57.530Z,1.40
2023-03-02T03:38:24.751Z,1.40
2023-03-02T03:40:51.919Z,1.20
2023-03-02T03:43:19.214Z,1.20
2023-03-02T03:45:46.414Z,1.20
2023-03-02T03:48:13.573Z,1.33
2023-03-02T03:50:40.992Z,1.30
2023-03-02T03:53:08.557Z,1.07
2023-03-02T03:55:35.703Z,1.30
2023-03-02T03:58:02.861Z,1.20
2023-03-02T04:00:30.106Z,1.27
2023-03-02T04:02:57.341Z,1.07
2023-03-02T04:05:24.658Z,1.20
2023-03-02T04:07:51.813Z,1.33
2023-03-02T04:10:18.976Z,1.30
2023-03-02T04:12:46.163Z,1.27
2023-03-02T04:15:15.281Z,1.30
2023-03-02T04:17:44.938Z,1.20
2023-03-02T04:20:16.820Z,1.20
2023-03-02T04:22:47.997Z,1.23
2023-03-02T04:25:17.425Z,1.20
2023-03-02T04:27:44.594Z,1.20
2023-03-02T04:30:12.063Z,1.30
2023-03-02T04:32:39.239Z,1.20
2023-03-02T04:35:06.701Z,1.37
2023-03-02T04:37:33.882Z,1.20
2023-03-02T04:40:01.083Z,1.20
2023-03-02T04:42:28.224Z,1.20
2023-03-02T04:44:55.361Z,1.23
2023-03-02T04:47:23.104Z,1.20
2023-03-02T04:49:54.605Z,1.20
2023-03-02T04:52:22.951Z,1.20
2023-03-02T04:54:50.164Z,1.23
2023-03-02T04:57:17.324Z,1.20
2023-03-02T04:59:44.599Z,1.20
2023-03-02T05:02:11.880Z,1.07
2023-03-02T05:04:40.555Z,1.10
2023-03-02T05:07:07.908Z,1.20
2023-03-02T05:09:35.160Z,1.10
2023-03-02T05:12:02.391Z,1.07
2023-03-02T05:14:30.018Z,1.20
2023-03-02T05:16:57.256Z,1.10
2023-03-02T05:19:24.468Z,1.07
2023-03-02T05:21:51.680Z,1.37
2023-03-02T05:24:18.998Z,1.40
2023-03-02T05:26:46.162Z,1.00
2023-03-02T05:29:13.328Z,1.13
2023-03-02T05:31:44.471Z,1.03
2023-03-02T05:34:12.933Z,1.70
2023-03-02T05:36:40.539Z,1.23
2023-03-02T05:39:08.773Z,1.20
2023-03-02T05:41:36.688Z,0.90
2023-03-02T05:44:04.280Z,1.17
2023-03-02T05:46:31.891Z,1.20
2023-03-02T05:48:59.319Z,1.20
2023-03-02T05:51:26.474Z,1.03
2023-03-02T05:53:53.663Z,1.00
2023-03-02T05:56:22.479Z,1.23
2023-03-02T05:58:49.647Z,1.13
2023-03-02T06:01:16.852Z,1.20
2023-03-02T06:03:44.335Z,1.10
2023-03-02T06:06:14.046Z,1.13
2023-03-02T06:08:42.084Z,1.10
2023-03-02T06:11:09.301Z,1.07
2023-03-02T06:13:36.846Z,1.20
2023-03-02T06:16:04.207Z,1.07
2023-03-02T06:18:31.457Z,1.13
2023-03-02T06:20:58.968Z,1.10
2023-03-02T06:23:26.141Z,1.40
2023-03-02T06:25:53.395Z,1.20
2023-03-02T06:28:21.895Z,1.13
2023-03-02T06:30:49.375Z,1.20
2023-03-02T06:33:18.190Z,1.00
2023-03-02T06:35:45.954Z,1.20
2023-03-02T06:38:13.281Z,1.07
2023-03-02T06:40:40.511Z,1.10
2023-03-02T06:43:07.679Z,1.07
2023-03-02T06:45:35.101Z,1.20
2023-03-02T06:48:02.544Z,1.00
2023-03-02T06:50:29.778Z,1.13
2023-03-02T06:52:57.029Z,1.03
2023-03-02T06:55:24.689Z,1.23
2023-03-02T06:57:52.002Z,1.10
2023-03-02T07:00:26.022Z,1.20
2023-03-02T07:02:53.737Z,1.00
2023-03-02T07:05:21.349Z,1.30
2023-03-02T07:07:48.734Z,1.00
2023-03-02T07:10:15.951Z,1.27
2023-03-02T07:12:43.536Z,1.20
2023-03-02T07:15:12.287Z,1.20
2023-03-02T07:17:39.803Z,1.10
2023-03-02T07:20:07.352Z,1.53
2023-03-02T07:22:34.563Z,0.87
2023-03-02T07:25:01.713Z,1.10
2023-03-02T07:27:28.895Z,1.40
2023-03-02T07:29:56.036Z,1.20
2023-03-02T07:32:23.223Z,1.03
2023-03-02T07:34:50.448Z,1.00
2023-03-02T07:37:17.625Z,1.07
2023-03-02T07:39:44.797Z,1.20
2023-03-02T07:42:13.013Z,1.20
2023-03-02T07:44:40.186Z,0.90
2023-03-02T07:47:07.389Z,0.97
2023-03-02T07:49:35.512Z,0.97
2023-03-02T07:52:03.272Z,0.90
2023-03-02T07:54:30.612Z,1.10
2023-03-02T07:56:58.612Z,0.80
2023-03-02T07:59:26.154Z,1.13
2023-03-02T08:01:53.389Z,1.07
2023-03-02T08:04:20.563Z,1.00
2023-03-02T08:06:47.767Z,1.03
2023-03-02T08:09:16.896Z,1.20
2023-03-02T08:11:44.976Z,1.00
2023-03-02T08:14:12.190Z,1.03
2023-03-02T08:16:40.314Z,1.20
2023-03-02T08:19:07.919Z,1.10
2023-03-02T08:21:35.358Z,1.10
2023-03-02T08:24:02.680Z,1.43
2023-03-02T08:26:30.213Z,1.40
2023-03-02T08:28:57.386Z,1.60
2023-03-02T08:31:24.626Z,1.77
2023-03-02T08:33:51.855Z,1.20
2023-03-02T08:36:20.366Z,1.47
2023-03-02T08:38:48.356Z,1.90
2023-03-02T08:41:16.953Z,1.70
2023-03-02T08:43:44.118Z,1.60
2023-03-02T08:46:11.946Z,1.70
2023-03-02T08:48:39.154Z,1.57
2023-03-02T08:51:08.247Z,1.60
2023-03-02T08:53:36.869Z,1.90
2023-03-02T08:56:04.270Z,1.70
2023-03-02T08:58:31.482Z,1.50
2023-03-02T09:00:58.666Z,1.70
2023-03-02T09:03:25.985Z,1.80
2023-03-02T09:05:53.189Z,1.63
2023-03-02T09:08:20.361Z,1.50
2023-03-02T09:10:47.500Z,1.90
2023-03-02T09:13:14.981Z,1.90
2023-03-02T09:15:42.215Z,2.00
2023-03-02T09:18:09.518Z,1.60
2023-03-02T09:20:36.668Z,1.80
2023-03-02T09:23:03.851Z,1.50
2023-03-02T09:25:31.026Z,1.90
2023-03-02T09:27:58.199Z,1.80
2023-03-02T09:30:25.477Z,1.63
2023-03-02T09:32:52.767Z,1.73
2023-03-02T09:35:19.991Z,1.50
2023-03-02T09:37:47.165Z,1.60
2023-03-02T09:40:19.558Z,1.40
2023-03-02T09:43:02.623Z,3.53
2023-03-02T09:45:52.034Z,1.93
2023-03-02T09:48:37.935Z,2.00
2023-03-02T09:51:20.859Z,1.50
2023-03-02T09:53:53.663Z,1.50
2023-03-02T09:56:22.183Z,1.40
2023-03-02T09:58:53.240Z,1.17
2023-03-02T10:01:27.764Z,1.10
2023-03-02T10:03:57.072Z,1.00
2023-03-02T10:06:24.377Z,1.00
2023-03-02T10:08:51.676Z,1.10
2023-03-02T10:11:23.098Z,1.10
2023-03-02T10:13:56.557Z,1.30
2023-03-02T10:16:33.238Z,1.23
2023-03-02T10:19:07.597Z,1.10
2023-03-02T10:21:38.263Z,1.00
2023-03-02T10:24:14.433Z,1.17
2023-03-02T10:26:43.908Z,1.80
2023-03-02T10:29:11.037Z,2.17
2023-03-02T10:31:39.908Z,2.20
2023-03-02T10:34:09.556Z,2.50
2023-03-02T10:36:39.452Z,2.20
2023-03-02T10:39:16.911Z,2.33
2023-03-02T10:41:49.571Z,2.20
2023-03-02T10:44:25.152Z,2.13
2023-03-02T10:46:53.856Z,2.40
2023-03-02T10:49:31.716Z,2.13
2023-03-02T10:52:00.593Z,2.40
2023-03-02T10:54:28.877Z,2.13
2023-03-02T10:56:57.874Z,2.20
2023-03-02T10:59:43.682Z,2.23
2023-03-02T11:02:24.425Z,2.47
2023-03-02T11:04:58.863Z,2.20
2023-03-02T11:07:28.056Z,2.03
2023-03-02T11:10:18.302Z,1.77
2023-03-02T11:12:47.274Z,1.90
2023-03-02T11:15:14.482Z,2.10
2023-03-02T11:17:42.219Z,1.80
2023-03-02T11:20:15.649Z,1.90
2023-03-02T11:22:50.543Z,1.60
2023-03-02T11:25:24.359Z,1.60
2023-03-02T11:27:55.474Z,1.60
2023-03-02T11:30:23.218Z,1.70
2023-03-02T11:33:03.231Z,1.33
2023-03-02T11:35:30.559Z,1.57
2023-03-02T11:38:00.759Z,1.60
2023-03-02T11:40:34.105Z,1.80
2023-03-02T11:43:04.771Z,1.80
2023-03-02T11:45:33.900Z,1.90
2023-03-02T11:48:07.365Z,1.50
2023-03-02T11:50:37.693Z,1.27
2023-03-02T11:53:07.073Z,1.20
2023-03-02T11:55:39.030Z,1.50
2023-03-02T11:58:06.731Z,1.60
2023-03-02T12:00:36.942Z,1.20
2023-03-02T12:03:08.547Z,1.50
2023-03-02T12:05:37.038Z,1.60
2023-03-02T12:08:06.047Z,1.30
2023-03-02T12:10:35.994Z,1.30
2023-03-02T12:13:15.414Z,1.30
2023-03-02T12:15:44.150Z,1.30
2023-03-02T12:18:17.496Z,1.20
2023-03-02T12:20:44.882Z,1.20
2023-03-02T12:23:23.431Z,1.30
2023-03-02T12:25:51.732Z,1.03
2023-03-02T12:28:30.609Z,1.50
2023-03-02T12:31:02.829Z,1.20
2023-03-02T12:33:30.010Z,1.40
2023-03-02T12:36:12.561Z,1.37
2023-03-02T12:38:42.150Z,1.20
2023-03-02T12:41:17.408Z,1.23
2023-03-02T12:44:03.438Z,1.20
2023-03-02T12:46:32.371Z,1.20
2023-03-02T12:49:03.577Z,0.90
2023-03-02T12:51:34.361Z,1.13
2023-03-02T12:54:08.704Z,0.83
2023-03-02T12:56:36.278Z,1.10
2023-03-02T12:59:03.636Z,1.00
2023-03-02T13:01:31.377Z,1.30
2023-03-02T13:03:59.020Z,1.30
2023-03-02T13:06:31.869Z,1.23
2023-03-02T13:09:00.590Z,3.67
2023-03-02T13:11:35.581Z,1.30
2023-03-02T13:14:03.725Z,1.60
2023-03-02T13:16:33.332Z,1.20
2023-03-02T13:19:06.464Z,1.30
2023-03-02T13:21:35.478Z,1.30
2023-03-02T13:24:02.768Z,1.50
2023-03-02T13:26:35.271Z,1.10
2023-03-02T13:29:02.830Z,1.47
2023-03-02T13:31:30.331Z,1.40
2023-03-02T13:33:57.791Z,1.10
2023-03-02T13:36:35.603Z,1.30
2023-03-02T13:39:03.248Z,1.40
2023-03-02T13:41:31.626Z,1.00
2023-03-02T13:43:59.512Z,1.03
2023-03-02T13:46:35.185Z,1.10
2023-03-02T13:49:10.366Z,2.67
2023-03-02T13:51:39.948Z,1.20
2023-03-02T13:54:13.696Z,1.20
2023-03-02T13:56:41.272Z,1.10
2023-03-02T13:59:15.794Z,1.20
2023-03-02T14:01:44.087Z,0.87
2023-03-02T14:04:12.355Z,1.30
2023-03-02T14:06:39.606Z,1.10
2023-03-02T14:09:06.777Z,1.00
2023-03-02T14:11:44.572Z,1.20
2023-03-02T14:14:14.961Z,0.90
2023-03-02T14:16:42.354Z,1.30
2023-03-02T14:19:11.414Z,1.03
2023-03-02T14:21:38.646Z,1.13
2023-03-02T14:24:06.239Z,1.03
2023-03-02T14:26:43.456Z,0.87
2023-03-02T14:29:27.348Z,1.13
2023-03-02T14:31:55.523Z,1.17
2023-03-02T14:34:23.072Z,1.00
2023-03-02T14:36:52.164Z,0.93
2023-03-02T14:39:21.620Z,0.83
2023-03-02T14:41:53.872Z,0.90
2023-03-02T14:44:22.133Z,0.70
2023-03-02T14:46:49.521Z,0.60
2023-03-02T14:49:16.719Z,1.00
2023-03-02T14:51:45.423Z,1.50
2023-03-02T14:54:15.759Z,0.70
2023-03-02T14:56:43.842Z,1.20
2023-03-02T14:59:14.177Z,0.90
2023-03-02T15:01:41.744Z,1.73
2023-03-02T15:04:08.965Z,1.27
2023-03-02T15:06:38.465Z,1.07
2023-03-02T15:09:06.208Z,0.97
2023-03-02T15:11:33.826Z,0.60
2023-03-02T15:14:01.244Z,0.87
2023-03-02T15:16:28.471Z,0.70
2023-03-02T15:18:58.397Z,1.00
2023-03-02T15:21:26.074Z,0.57
2023-03-02T15:23:53.321Z,0.90
2023-03-02T15:26:20.573Z,0.90
2023-03-02T15:28:50.309Z,0.90
2023-03-02T15:31:17.847Z,1.73
2023-03-02T15:33:46.221Z,4.40
2023-03-02T15:36:13.976Z,1.10
2023-03-02T15:38:41.324Z,1.00
2023-03-02T15:41:09.873Z,1.13
2023-03-02T15:43:37.020Z,0.70
2023-03-02T15:46:04.253Z,0.90
2023-03-02T15:48:31.478Z,0.80
2023-03-02T15:50:59.581Z,1.00
2023-03-02T15:53:27.493Z,1.10
2023-03-02T15:55:54.920Z,1.07
2023-03-02T15:58:22.136Z,1.00
2023-03-02T16:00:50.090Z,0.87
2023-03-02T16:03:19.273Z,1.10
2023-03-02T16:05:46.642Z,1.07
2023-03-02T16:08:13.845Z,0.80
2023-03-02T16:10:42.969Z,0.93
2023-03-02T16:13:11.092Z,1.20
2023-03-02T16:15:41.694Z,1.20
2023-03-02T16:18:09.458Z,1.10
2023-03-02T16:20:37.334Z,0.97
2023-03-02T16:23:06.294Z,0.80
2023-03-02T16:25:39.649Z,0.77
2023-03-02T16:28:08.723Z,0.83
2023-03-02T16:30:35.969Z,1.10
2023-03-02T16:33:04.068Z,0.97
2023-03-02T16:35:32.545Z,1.10
2023-03-02T16:37:59.954Z,1.17
2023-03-02T16:40:27.181Z,1.00
2023-03-02T16:42:54.499Z,1.10
2023-03-02T16:45:22.470Z,1.00
2023-03-02T16:47:50.057Z,1.40
2023-03-02T16:50:18.304Z,1.20
2023-03-02T16:52:45.865Z,1.10
2023-03-02T16:55:14.640Z,1.30
2023-03-02T16:57:42.199Z,0.87
2023-03-02T17:00:11.629Z,0.90
2023-03-02T17:02:38.783Z,1.27
2023-03-02T17:05:06.124Z,0.97
2023-03-02T17:07:33.290Z,1.00
2023-03-02T17:10:00.448Z,1.10
2023-03-02T17:12:27.620Z,1.50
2023-03-02T17:14:54.769Z,1.43
2023-03-02T17:17:21.969Z,1.20
2023-03-02T17:19:49.117Z,1.50
2023-03-02T17:22:16.622Z,1.10
2023-03-02T17:24:43.821Z,1.13
2023-03-02T17:27:24.108Z,1.10
2023-03-02T17:29:52.359Z,1.20
2023-03-02T17:32:19.741Z,1.30
2023-03-02T17:34:47.217Z,1.20
2023-03-02T17:37:14.625Z,1.30
2023-03-02T17:39:41.777Z,1.10
2023-03-02T17:42:09.042Z,1.40
2023-03-02T17:44:38.480Z,1.40
2023-03-02T17:47:07.575Z,1.20
2023-03-02T17:49:35.592Z,1.30
2023-03-02T17:52:02.793Z,1.30
2023-03-02T17:54:30.193Z,1.43
2023-03-02T17:56:57.373Z,1.10
2023-03-02T17:59:24.532Z,1.47
2023-03-02T18:01:51.697Z,1.50
2023-03-02T18:04:18.897Z,1.47
2023-03-02T18:06:46.051Z,1.50
2023-03-02T18:09:13.362Z,1.30
2023-03-02T18:11:43.722Z,1.60
2023-03-02T18:14:14.528Z,1.67
2023-03-02T18:16:41.766Z,1.60
2023-03-02T18:19:09.175Z,1.63
2023-03-02T18:21:36.453Z,1.80
2023-03-02T18:24:04.343Z,1.87
2023-03-02T18:26:31.834Z,1.87
2023-03-02T18:28:59.014Z,1.80
2023-03-02T18:31:26.421Z,1.73
2023-03-02T18:33:53.615Z,1.70
2023-03-02T18:36:20.947Z,1.60
2023-03-02T18:38:48.107Z,1.70
2023-03-02T18:41:15.340Z,1.90
2023-03-02T18:43:43.376Z,2.00
2023-03-02T18:46:18.534Z,2.20
2023-03-02T18:48:46.504Z,1.90
2023-03-02T18:51:14.405Z,2.00
2023-03-02T18:53:43.070Z,1.90
2023-03-02T18:56:10.303Z,2.03
2023-03-02T18:58:37.720Z,1.67
2023-03-02T19:01:04.993Z,1.70
2023-03-02T19:03:35.313Z,1.70
2023-03-02T19:06:02.554Z,2.00
2023-03-02T19:08:29.701Z,1.73
2023-03-02T19:10:56.887Z,1.70
2023-03-02T19:13:24.273Z,1.70
2023-03-02T19:15:54.667Z,1.60
2023-03-02T19:18:23.251Z,1.50
2023-03-02T19:20:51.425Z,1.57
2023-03-02T19:23:18.640Z,1.30
2023-03-02T19:25:46.217Z,1.40
2023-03-02T19:28:13.643Z,1.50
2023-03-02T19:30:40.891Z,1.50
2023-03-02T19:33:09.845Z,1.50
2023-03-02T19:35:37.781Z,1.50
2023-03-02T19:38:05.736Z,1.40
2023-03-02T19:40:34.474Z,1.70
2023-03-02T19:43:02.164Z,1.30
2023-03-02T19:45:32.338Z,1.67
2023-03-02T19:48:00.413Z,1.20
2023-03-02T19:50:28.267Z,1.50
2023-03-02T19:52:55.674Z,1.40
2023-03-02T19:55:24.285Z,1.50
2023-03-02T19:57:59.416Z,1.70
2023-03-02T20:00:27.722Z,1.50
2023-03-02T20:02:54.995Z,1.40
2023-03-02T20:05:22.430Z,1.70
2023-03-02T20:07:49.892Z,1.47
2023-03-02T20:10:26.303Z,1.50
2023-03-02T20:12:53.687Z,1.73
2023-03-02T20:15:20.986Z,1.50
2023-03-02T20:17:48.210Z,1.60
2023-03-02T20:20:15.492Z,1.77
2023-03-02T20:22:42.818Z,1.43
2023-03-02T20:25:10.148Z,1.40
2023-03-02T20:27:37.482Z,1.60
2023-03-02T20:30:07.687Z,1.27
2023-03-02T20:32:35.002Z,1.27
2023-03-02T20:35:02.540Z,1.50
2023-03-02T20:37:29.938Z,1.50
2023-03-02T20:39:57.099Z,1.20
2023-03-02T20:42:24.306Z,1.33
2023-03-02T20:44:52.137Z,1.60
2023-03-02T20:47:20.019Z,1.60
2023-03-02T20:49:47.252Z,1.60
2023-03-02T20:52:14.455Z,1.33
2023-03-02T20:54:43.009Z,1.93
2023-03-02T20:57:10.286Z,1.70
2023-03-02T20:59:38.718Z,1.63
2023-03-02T21:02:06.488Z,1.83
2023-03-02T21:04:35.810Z,1.80
2023-03-02T21:07:03.323Z,1.60
2023-03-02T21:09:30.870Z,1.50
2023-03-02T21:11:58.897Z,1.57
2023-03-02T21:14:27.426Z,1.63
2023-03-02T21:16:54.976Z,1.73
2023-03-02T21:19:22.218Z,1.43
2023-03-02T21:21:49.469Z,1.60
2023-03-02T21:24:17.297Z,1.70
2023-03-02T21:26:47.908Z,1.60
2023-03-02T21:29:16.701Z,1.50
2023-03-02T21:31:43.995Z,1.70
2023-03-02T21:34:12.744Z,1.70
2023-03-02T21:36:40.212Z,1.60
2023-03-02T21:39:08.255Z,1.60
2023-03-02T21:41:35.822Z,1.70
2023-03-02T21:44:05.394Z,1.80
2023-03-02T21:46:33.666Z,1.67
2023-03-02T21:49:00.860Z,1.50
2023-03-02T21:51:28.057Z,1.80
2023-03-02T21:53:55.273Z,1.60
2023-03-02T21:56:23.836Z,1.70
2023-03-02T21:58:51.821Z,1.50
2023-03-02T22:01:19.212Z,1.70
2023-03-02T22:03:46.559Z,1.50
2023-03-02T22:06:17.930Z,1.80
2023-03-02T22:08:45.152Z,1.70
2023-03-02T22:11:15.500Z,1.80
2023-03-02T22:13:42.743Z,1.80
2023-03-02T22:16:10.244Z,1.70
2023-03-02T22:18:37.756Z,1.90
2023-03-02T22:21:19.988Z,1.70
2023-03-02T22:23:47.255Z,1.90
2023-03-02T22:26:15.927Z,1.60
2023-03-02T22:28:43.796Z,2.13
2023-03-02T22:31:21.219Z,1.93
2023-03-02T22:33:49.634Z,1.90
2023-03-02T22:36:21.792Z,1.97
2023-03-02T22:38:49.303Z,2.20
2023-03-02T22:41:17.551Z,2.50
2023-03-02T22:43:45.354Z,2.20
2023-03-02T22:46:15.833Z,2.30
2023-03-02T22:48:44.755Z,2.30
2023-03-02T22:51:19.636Z,2.30
2023-03-02T22:53:54.191Z,2.50
2023-03-02T22:56:24.870Z,2.40
2023-03-02T22:58:52.620Z,2.67
2023-03-02T23:01:20.627Z,2.70
2023-03-02T23:03:49.309Z,2.77
2023-03-02T23:06:23.295Z,2.90
2023-03-02T23:08:50.594Z,2.70
2023-03-02T23:11:19.295Z,2.50
2023-03-02T23:13:46.655Z,2.70
2023-03-02T23:16:27.231Z,2.73
2023-03-02T23:18:55.816Z,2.97
2023-03-02T23:21:25.194Z,3.17
2023-03-02T23:23:53.727Z,3.20
2023-03-02T23:26:21.203Z,3.30
2023-03-02T23:28:49.127Z,3.40
2023-03-02T23:31:18.369Z,3.60
2023-03-02T23:33:45.963Z,3.60
2023-03-02T23:36:13.403Z,3.90
2023-03-02T23:38:41.125Z,3.90
2023-03-02T23:41:09.942Z,3.77
2023-03-02T23:43:37.249Z,4.30
2023-03-02T23:46:04.720Z,4.13
2023-03-02T23:48:32.021Z,4.40
2023-03-02T23:50:59.246Z,4.93
2023-03-02T23:53:26.921Z,4.50
2023-03-02T23:55:55.286Z,4.87
2023-03-02T23:58:22.745Z,4.70
